Time;durP1;ratioP1;P1;durP2;ratioP2;P2;SDS_P1;SDS_P2;PMS_P1;PMS_P2;Temp;Humidity;BMP_temperature;BMP_pressure;BME280_temperature;BME280_humidity;BME280_pressure;Samples;Min_cycle;Max_cycle;Signal;HPM_P1;HPM_P2
2022/01/08 00:00:59;;;;;;;11.70;4.88;;;2.30;99.90;;;;;;5030289;28;21289;-39
2022/01/08 00:03:26;;;;;;;11.50;5.00;;;2.30;99.90;;;;;;5035380;28;20527;-39
2022/01/08 00:05:56;;;;;;;15.70;5.20;;;2.30;99.90;;;;;;5057356;28;20057;-38
2022/01/08 00:08:24;;;;;;;13.90;4.85;;;2.30;99.90;;;;;;5032064;28;20063;-39
2022/01/08 00:10:51;;;;;;;13.13;4.68;;;2.30;99.90;;;;;;5048780;28;20485;-39
2022/01/08 00:13:18;;;;;;;12.30;5.15;;;2.40;99.90;;;;;;5049953;28;20540;-39
2022/01/08 00:15:45;;;;;;;7.72;4.22;;;2.40;99.90;;;;;;5038604;28;20045;-39
2022/01/08 00:18:12;;;;;;;13.10;4.53;;;2.40;99.90;;;;;;5027567;28;20484;-39
2022/01/08 00:20:39;;;;;;;9.27;5.07;;;2.40;99.90;;;;;;5033451;28;20145;-39
2022/01/08 00:23:08;;;;;;;11.38;4.82;;;2.40;99.90;;;;;;5027278;28;20448;-39
2022/01/08 00:25:35;;;;;;;12.27;4.60;;;2.40;99.90;;;;;;5019349;28;20081;-39
2022/01/08 00:28:02;;;;;;;12.02;4.68;;;2.30;99.90;;;;;;5041528;28;20059;-39
2022/01/08 00:30:30;;;;;;;12.02;4.70;;;2.30;99.90;;;;;;5022534;28;20053;-39
2022/01/08 00:32:58;;;;;;;10.80;4.85;;;2.40;99.90;;;;;;5050325;28;20094;-39
2022/01/08 00:35:26;;;;;;;10.50;4.57;;;2.40;99.90;;;;;;5046543;28;20086;-39
2022/01/08 00:37:53;;;;;;;12.63;5.43;;;2.40;99.90;;;;;;5060510;28;20138;-40
2022/01/08 00:40:21;;;;;;;15.48;5.00;;;2.40;99.90;;;;;;5061532;28;20088;-39
2022/01/08 00:42:48;;;;;;;13.10;5.07;;;2.40;99.90;;;;;;5060912;28;20347;-40
2022/01/08 00:45:15;;;;;;;13.35;6.28;;;2.40;99.90;;;;;;5038243;28;20059;-40
2022/01/08 00:47:42;;;;;;;9.68;5.43;;;2.40;99.90;;;;;;5028820;28;20048;-39
2022/01/08 00:50:12;;;;;;;12.80;5.80;;;2.40;99.90;;;;;;5032997;28;20416;-40
2022/01/08 00:52:39;;;;;;;14.52;5.40;;;2.40;99.90;;;;;;5023431;28;20115;-40
2022/01/08 00:55:07;;;;;;;11.10;5.05;;;2.40;99.90;;;;;;5026304;28;20362;-40
2022/01/08 00:57:35;;;;;;;13.55;5.88;;;2.40;99.90;;;;;;5026048;28;20464;-40
2022/01/08 01:00:03;;;;;;;13.32;5.30;;;2.40;99.90;;;;;;5034863;28;20124;-40
2022/01/08 01:02:30;;;;;;;12.63;5.22;;;2.40;99.90;;;;;;5020597;28;20087;-40
2022/01/08 01:04:57;;;;;;;14.02;5.57;;;2.40;99.90;;;;;;5039332;28;20049;-40
2022/01/08 01:07:24;;;;;;;13.27;5.38;;;2.30;99.90;;;;;;5045792;28;20049;-40
2022/01/08 01:09:51;;;;;;;10.82;4.97;;;2.30;99.90;;;;;;5045445;28;20072;-40
2022/01/08 01:12:18;;;;;;;11.20;5.10;;;2.30;99.90;;;;;;5025122;28;20053;-40
2022/01/08 01:14:47;;;;;;;12.50;5.95;;;2.30;99.90;;;;;;5049447;28;20047;-41
2022/01/08 01:17:14;;;;;;;15.13;6.38;;;2.30;99.90;;;;;;5052788;28;20057;-40
2022/01/08 01:19:41;;;;;;;15.43;6.65;;;2.20;99.90;;;;;;5035012;28;20132;-41
2022/01/08 01:22:08;;;;;;;16.38;7.03;;;2.20;99.90;;;;;;5038851;28;20107;-41
2022/01/08 01:24:37;;;;;;;22.42;8.38;;;2.20;99.90;;;;;;5043805;28;20059;-40
2022/01/08 01:27:31;;;;;;;17.55;7.65;;;2.10;99.90;;;;;;5017257;28;20049;-43
2022/01/08 01:30:05;;;;;;;15.27;8.02;;;2.10;99.90;;;;;;5040928;28;20493;-41
2022/01/08 01:41:20;;;;;;;16.30;9.75;;;2.00;99.90;;;;;;5044809;28;20416;-42
2022/01/08 01:49:17;;;;;;;21.17;10.43;;;1.90;99.90;;;;;;5040975;28;20386;-41
2022/01/08 01:51:44;;;;;;;20.55;10.20;;;1.90;99.90;;;;;;5020165;28;20132;-41
2022/01/08 01:54:11;;;;;;;21.13;9.63;;;1.90;99.90;;;;;;5016551;28;20057;-41
2022/01/08 01:56:38;;;;;;;22.80;10.02;;;1.90;99.90;;;;;;5048491;28;20059;-41
2022/01/08 01:59:05;;;;;;;22.20;10.25;;;1.90;99.90;;;;;;5037898;28;20132;-43
2022/01/08 02:01:34;;;;;;;24.58;10.25;;;1.90;99.90;;;;;;5021206;28;20049;-40
2022/01/08 02:04:01;;;;;;;18.88;10.05;;;1.80;99.90;;;;;;5019247;28;20563;-40
2022/01/08 02:06:28;;;;;;;16.00;9.43;;;1.80;99.90;;;;;;5045262;28;20037;-40
2022/01/08 02:08:55;;;;;;;21.58;10.95;;;1.80;99.90;;;;;;5025893;28;20500;-41
2022/01/08 02:11:22;;;;;;;24.00;10.13;;;1.80;99.90;;;;;;5036773;28;20092;-40
2022/01/08 02:13:50;;;;;;;24.73;12.07;;;1.80;99.90;;;;;;5034997;28;20052;-40
2022/01/08 02:16:17;;;;;;;17.80;10.95;;;1.80;99.90;;;;;;5040788;28;20068;-41
2022/01/08 02:18:46;;;;;;;21.65;11.18;;;1.80;99.90;;;;;;5037109;28;20095;-41
2022/01/08 02:21:15;;;;;;;23.00;11.48;;;1.80;99.90;;;;;;5035416;28;20084;-41
2022/01/08 02:23:42;;;;;;;19.05;9.73;;;1.90;99.90;;;;;;5033831;28;20096;-41
2022/01/08 02:26:10;;;;;;;18.77;10.30;;;1.90;99.90;;;;;;5016854;28;20107;-40
2022/01/08 02:28:37;;;;;;;22.73;10.55;;;1.90;99.90;;;;;;5016197;28;20508;-40
2022/01/08 02:31:04;;;;;;;22.50;10.20;;;1.90;99.90;;;;;;5015197;28;20060;-41
2022/01/08 02:33:31;;;;;;;17.63;9.57;;;1.90;99.90;;;;;;5040449;28;20053;-41
2022/01/08 02:35:58;;;;;;;21.05;8.75;;;1.90;99.90;;;;;;5043802;28;20499;-41
2022/01/08 02:38:27;;;;;;;20.83;9.32;;;1.90;99.90;;;;;;5017784;28;20473;-42
2022/01/08 02:40:57;;;;;;;19.45;9.13;;;1.90;99.90;;;;;;5040065;28;20049;-44
2022/01/08 02:43:24;;;;;;;19.27;9.02;;;1.90;99.90;;;;;;5038193;28;20051;-42
2022/01/08 02:45:51;;;;;;;18.50;9.23;;;1.90;99.90;;;;;;5022282;28;20041;-42
2022/01/08 02:48:18;;;;;;;20.35;9.30;;;1.80;99.90;;;;;;5021228;28;20053;-41
2022/01/08 02:50:45;;;;;;;22.50;9.70;;;1.90;99.90;;;;;;5027742;28;20547;-39
2022/01/08 02:53:12;;;;;;;15.57;8.73;;;1.90;99.90;;;;;;5015557;28;20084;-39
2022/01/08 02:55:40;;;;;;;18.45;8.43;;;1.80;99.90;;;;;;5034637;28;20433;-39
2022/01/08 02:58:07;;;;;;;19.60;8.88;;;1.80;99.90;;;;;;5036589;28;20041;-39
2022/01/08 03:00:34;;;;;;;12.85;7.97;;;1.80;99.90;;;;;;5015009;28;20111;-39
2022/01/08 03:03:01;;;;;;;17.73;8.25;;;1.80;99.90;;;;;;5035853;28;20044;-38
2022/01/08 03:05:29;;;;;;;21.55;8.40;;;1.80;99.90;;;;;;5032237;28;20056;-41
2022/01/08 03:07:56;;;;;;;17.00;8.77;;;1.70;99.90;;;;;;5017968;28;20142;-38
2022/01/08 03:10:23;;;;;;;15.60;7.95;;;1.70;99.90;;;;;;5043861;28;20046;-38
2022/01/08 03:12:51;;;;;;;15.32;7.63;;;1.70;99.90;;;;;;5017436;28;20127;-40
2022/01/08 03:15:19;;;;;;;13.13;7.20;;;1.70;99.90;;;;;;5037895;28;20132;-38
2022/01/08 03:17:46;;;;;;;14.07;7.13;;;1.70;99.90;;;;;;5039666;28;21268;-38
2022/01/08 03:20:14;;;;;;;16.58;7.32;;;1.70;99.90;;;;;;5020273;28;20107;-38
2022/01/08 03:22:42;;;;;;;17.45;6.60;;;1.60;99.90;;;;;;5049872;28;20080;-38
2022/01/08 03:25:10;;;;;;;21.67;7.95;;;1.60;99.90;;;;;;5032004;28;20049;-37
2022/01/08 03:27:37;;;;;;;11.70;7.18;;;1.60;99.90;;;;;;5033341;28;20080;-40
2022/01/08 03:30:06;;;;;;;14.82;7.00;;;1.60;99.90;;;;;;5032425;28;20129;-37
2022/01/08 03:32:33;;;;;;;13.32;6.18;;;1.60;99.90;;;;;;5038495;28;20045;-37
2022/01/08 03:35:00;;;;;;;13.20;6.38;;;1.60;99.90;;;;;;5037083;28;20076;-37
2022/01/08 03:37:27;;;;;;;13.88;7.25;;;1.60;99.90;;;;;;5033222;28;20081;-37
2022/01/08 03:39:54;;;;;;;13.50;6.97;;;1.70;99.90;;;;;;5040118;28;20048;-38
2022/01/08 03:42:21;;;;;;;15.55;7.50;;;1.70;99.90;;;;;;5034750;28;20081;-37
2022/01/08 03:44:48;;;;;;;12.38;6.90;;;1.70;99.90;;;;;;5037280;28;20055;-37
2022/01/08 03:47:30;;;;;;;20.30;7.30;;;1.70;99.90;;;;;;5037373;28;20067;-38
2022/01/08 03:49:57;;;;;;;13.07;6.72;;;1.60;99.90;;;;;;5018395;28;20053;-39
2022/01/08 03:52:24;;;;;;;11.27;6.00;;;1.60;99.90;;;;;;5017012;28;20548;-38
2022/01/08 03:54:51;;;;;;;12.77;6.30;;;1.70;99.90;;;;;;5014387;28;20080;-38
2022/01/08 03:57:18;;;;;;;16.13;6.38;;;1.60;99.90;;;;;;5039517;28;20464;-37
2022/01/08 03:59:45;;;;;;;18.98;6.70;;;1.60;99.90;;;;;;5035586;28;20060;-38
2022/01/08 04:02:12;;;;;;;16.70;6.70;;;1.60;99.90;;;;;;5034032;28;20504;-37
2022/01/08 04:04:41;;;;;;;16.77;7.03;;;1.60;99.90;;;;;;5035358;28;20055;-37
2022/01/08 04:07:08;;;;;;;17.00;7.15;;;1.60;99.90;;;;;;5032035;28;20091;-37
2022/01/08 04:09:35;;;;;;;22.75;7.85;;;1.60;99.90;;;;;;5027508;28;20049;-37
2022/01/08 04:12:04;;;;;;;18.67;7.20;;;1.70;99.90;;;;;;5019669;28;20132;-37
2022/01/08 04:14:42;;;;;;;12.45;6.38;;;1.70;99.90;;;;;;5039058;28;20056;-37
2022/01/08 04:17:09;;;;;;;16.70;7.25;;;1.70;99.90;;;;;;5037058;28;20072;-37
2022/01/08 04:19:36;;;;;;;15.85;7.57;;;1.70;99.90;;;;;;5039255;28;20060;-37
2022/01/08 04:22:11;;;;;;;18.98;8.65;;;1.70;99.90;;;;;;5017371;28;20085;-37
2022/01/08 04:24:38;;;;;;;17.13;6.78;;;1.70;99.90;;;;;;5034470;28;20070;-37
2022/01/08 04:27:05;;;;;;;15.90;7.45;;;1.80;99.90;;;;;;5022694;28;20132;-37
2022/01/08 04:29:32;;;;;;;15.65;8.52;;;1.70;99.90;;;;;;5016971;28;20061;-38
2022/01/08 04:31:59;;;;;;;17.98;8.02;;;1.70;99.90;;;;;;5024889;28;20120;-37
2022/01/08 04:34:27;;;;;;;16.27;6.97;;;1.70;99.90;;;;;;5027799;28;20140;-37
2022/01/08 04:36:54;;;;;;;20.67;8.60;;;1.70;99.90;;;;;;5030300;28;20083;-37
2022/01/08 04:39:22;;;;;;;18.70;8.57;;;1.70;99.90;;;;;;5040083;28;20077;-37
2022/01/08 04:41:49;;;;;;;17.35;8.07;;;1.70;99.90;;;;;;5036587;28;20042;-37
2022/01/08 04:44:16;;;;;;;17.13;8.52;;;1.70;99.90;;;;;;5034166;28;20052;-37
2022/01/08 04:46:43;;;;;;;20.42;8.80;;;1.70;99.90;;;;;;5039694;28;20049;-37
2022/01/08 04:49:11;;;;;;;17.10;8.95;;;1.60;99.90;;;;;;5022405;28;20465;-37
2022/01/08 04:51:38;;;;;;;19.30;9.25;;;1.60;99.90;;;;;;5030207;28;20108;-37
2022/01/08 04:54:05;;;;;;;17.65;8.57;;;1.60;99.90;;;;;;5019344;28;20065;-37
2022/01/08 04:56:33;;;;;;;23.80;9.38;;;1.60;99.90;;;;;;5041962;28;20080;-37
2022/01/08 04:59:00;;;;;;;19.85;8.77;;;1.60;99.90;;;;;;5035665;28;20345;-38
2022/01/08 05:01:27;;;;;;;20.52;9.35;;;1.50;99.90;;;;;;5031953;28;20047;-37
2022/01/08 05:03:54;;;;;;;18.85;8.68;;;1.50;99.90;;;;;;5039179;28;20071;-37
2022/01/08 05:06:21;;;;;;;19.20;9.15;;;1.50;99.90;;;;;;5035185;28;20045;-37
2022/01/08 05:08:48;;;;;;;24.25;10.10;;;1.50;99.90;;;;;;5034231;28;20064;-37
2022/01/08 05:11:15;;;;;;;18.08;8.52;;;1.50;99.90;;;;;;5020037;28;20382;-37
2022/01/08 05:13:44;;;;;;;29.67;9.45;;;1.50;99.90;;;;;;5039354;28;20049;-37
2022/01/08 05:16:11;;;;;;;23.27;9.18;;;1.50;99.90;;;;;;5043109;28;20062;-38
2022/01/08 05:18:38;;;;;;;22.38;10.07;;;1.40;99.90;;;;;;5041457;28;20041;-37
2022/01/08 05:21:16;;;;;;;23.13;8.57;;;1.50;99.90;;;;;;5040862;28;20076;-37
2022/01/08 05:23:43;;;;;;;16.05;8.15;;;1.40;99.90;;;;;;5034514;28;20045;-37
2022/01/08 05:26:10;;;;;;;18.30;8.60;;;1.40;99.90;;;;;;5041306;28;20131;-38
2022/01/08 05:28:37;;;;;;;16.40;8.20;;;1.40;99.90;;;;;;5019842;28;20041;-38
2022/01/08 05:31:05;;;;;;;14.77;7.88;;;1.40;99.90;;;;;;5018202;28;20136;-38
2022/01/08 05:33:32;;;;;;;20.38;8.30;;;1.40;99.90;;;;;;5040514;28;20053;-38
2022/01/08 05:35:59;;;;;;;15.73;7.50;;;1.40;99.90;;;;;;5016758;28;20065;-38
2022/01/08 05:38:26;;;;;;;16.30;7.88;;;1.40;99.90;;;;;;5019022;28;20525;-38
2022/01/08 05:40:53;;;;;;;20.10;7.30;;;1.40;99.90;;;;;;5040865;28;20061;-38
2022/01/08 05:43:20;;;;;;;21.23;7.57;;;1.40;99.90;;;;;;5038257;28;20455;-38
2022/01/08 05:45:47;;;;;;;18.30;7.55;;;1.40;99.90;;;;;;5025648;28;20053;-38
2022/01/08 05:48:15;;;;;;;16.40;7.00;;;1.30;99.90;;;;;;5025970;28;20108;-38
2022/01/08 05:50:42;;;;;;;19.48;7.32;;;1.30;99.90;;;;;;5040843;28;20132;-38
2022/01/08 05:53:09;;;;;;;17.35;7.05;;;1.30;99.90;;;;;;5035230;28;20056;-38
2022/01/08 05:55:36;;;;;;;18.13;7.13;;;1.30;99.90;;;;;;5033991;28;20045;-38
2022/01/08 05:58:03;;;;;;;21.38;6.78;;;1.30;99.90;;;;;;5039296;28;20046;-38
2022/01/08 06:00:30;;;;;;;19.50;6.25;;;1.30;99.90;;;;;;5037936;28;20086;-37
2022/01/08 06:02:57;;;;;;;16.77;6.32;;;1.20;99.90;;;;;;5044111;28;20473;-37
2022/01/08 06:05:26;;;;;;;19.02;6.15;;;1.20;99.90;;;;;;5045692;28;20055;-38
2022/01/08 06:07:53;;;;;;;12.93;6.00;;;1.20;99.90;;;;;;5048206;28;20126;-38
2022/01/08 06:10:20;;;;;;;20.40;6.28;;;1.20;99.90;;;;;;5046366;28;20076;-37
2022/01/08 06:12:47;;;;;;;13.40;5.60;;;1.20;99.90;;;;;;5043244;28;20123;-37
2022/01/08 06:15:14;;;;;;;17.00;6.05;;;1.20;99.90;;;;;;5015974;28;20053;-37
2022/01/08 06:17:41;;;;;;;15.77;6.28;;;1.20;99.90;;;;;;5031600;28;20045;-38
2022/01/08 06:20:09;;;;;;;15.52;5.38;;;1.20;99.90;;;;;;5018865;28;20080;-38
2022/01/08 06:22:37;;;;;;;13.52;5.35;;;1.20;99.90;;;;;;5035578;28;20049;-37
2022/01/08 06:25:05;;;;;;;20.60;5.93;;;1.20;99.90;;;;;;5038329;28;20051;-37
2022/01/08 06:27:32;;;;;;;15.82;6.13;;;1.20;99.90;;;;;;5020905;28;20053;-37
2022/01/08 06:29:59;;;;;;;21.73;6.80;;;1.20;99.90;;;;;;5035939;28;20132;-38
2022/01/08 06:32:26;;;;;;;21.13;10.13;;;1.20;99.90;;;;;;5036460;28;20445;-38
2022/01/08 06:34:53;;;;;;;14.15;6.32;;;1.20;99.90;;;;;;5037581;28;20087;-38
2022/01/08 06:37:20;;;;;;;17.52;6.25;;;1.20;99.90;;;;;;5033147;28;20398;-37
2022/01/08 06:39:50;;;;;;;23.48;7.03;;;1.10;99.90;;;;;;5032676;28;20048;-38
2022/01/08 06:42:17;;;;;;;15.77;6.20;;;1.20;99.90;;;;;;5018760;28;20053;-38
2022/01/08 06:44:44;;;;;;;12.60;5.57;;;1.20;99.90;;;;;;5046858;28;20124;-38
2022/01/08 06:47:11;;;;;;;20.38;7.35;;;1.20;99.90;;;;;;5025959;28;20053;-37
2022/01/08 06:49:38;;;;;;;17.35;7.35;;;1.10;99.90;;;;;;5039766;28;20076;-38
2022/01/08 06:52:06;;;;;;;20.45;6.10;;;1.20;99.90;;;;;;5022575;28;20071;-38
2022/01/08 06:54:33;;;;;;;20.67;6.78;;;1.20;99.90;;;;;;5037760;28;20128;-37
2022/01/08 06:57:01;;;;;;;19.83;7.18;;;1.20;99.90;;;;;;5018737;28;20064;-37
2022/01/08 06:59:28;;;;;;;22.10;7.20;;;1.20;99.90;;;;;;5024106;28;20087;-38
2022/01/08 07:01:55;;;;;;;16.00;7.15;;;1.10;99.90;;;;;;5020127;28;20080;-38
2022/01/08 07:04:22;;;;;;;17.27;6.63;;;1.10;99.90;;;;;;5021629;28;20107;-38
2022/01/08 07:06:49;;;;;;;15.43;7.10;;;1.10;99.90;;;;;;5015770;28;20107;-38
2022/01/08 07:09:16;;;;;;;20.83;6.82;;;1.20;99.90;;;;;;5035417;28;20053;-38
2022/01/08 07:11:43;;;;;;;21.00;7.25;;;1.10;99.90;;;;;;5037334;28;20508;-38
2022/01/08 07:14:12;;;;;;;17.23;7.30;;;1.20;99.90;;;;;;5033825;28;20049;-37
2022/01/08 07:16:39;;;;;;;20.20;6.25;;;1.20;99.90;;;;;;5038302;28;20038;-38
2022/01/08 07:19:06;;;;;;;12.70;6.00;;;1.20;99.90;;;;;;5032668;28;20140;-38
2022/01/08 07:21:33;;;;;;;13.55;6.70;;;1.20;99.90;;;;;;5016329;28;20323;-38
2022/01/08 07:24:00;;;;;;;16.25;6.50;;;1.20;99.90;;;;;;5016138;28;20131;-38
2022/01/08 07:26:27;;;;;;;17.13;6.90;;;1.20;99.90;;;;;;5017231;28;20100;-38
2022/01/08 07:28:54;;;;;;;20.50;6.85;;;1.20;99.90;;;;;;5018791;28;20046;-38
2022/01/08 07:31:22;;;;;;;23.42;7.47;;;1.20;99.90;;;;;;5026352;28;20056;-38
2022/01/08 07:33:50;;;;;;;16.73;6.30;;;1.20;99.90;;;;;;5023960;28;20053;-38
2022/01/08 07:36:17;;;;;;;23.02;7.68;;;1.20;99.90;;;;;;5021046;28;20489;-38
2022/01/08 07:38:44;;;;;;;24.10;8.02;;;1.20;99.90;;;;;;5019438;28;20088;-38
2022/01/08 07:41:11;;;;;;;20.55;7.22;;;1.20;99.90;;;;;;5018572;28;20437;-38
2022/01/08 07:43:38;;;;;;;23.38;6.90;;;1.20;99.90;;;;;;5015237;28;20042;-38
2022/01/08 07:46:05;;;;;;;19.98;6.22;;;1.20;99.90;;;;;;5021432;28;20107;-38
2022/01/08 07:48:33;;;;;;;22.73;6.18;;;1.20;99.90;;;;;;5033084;28;20047;-38
2022/01/08 07:51:00;;;;;;;18.70;5.30;;;1.20;99.90;;;;;;5042908;28;20043;-38
2022/01/08 07:53:27;;;;;;;12.65;5.55;;;1.30;99.90;;;;;;5034833;28;20049;-38
2022/01/08 07:55:54;;;;;;;16.48;5.20;;;1.30;99.90;;;;;;5044928;28;20047;-38
2022/01/08 07:58:21;;;;;;;21.00;5.35;;;1.20;99.90;;;;;;5045743;28;20052;-38
2022/01/08 08:00:48;;;;;;;12.75;5.53;;;1.20;99.90;;;;;;5041878;28;20481;-38
2022/01/08 08:03:15;;;;;;;14.68;4.97;;;1.20;99.90;;;;;;5044842;28;20057;-38
2022/01/08 08:05:45;;;;;;;18.90;5.28;;;1.20;99.90;;;;;;5046629;28;20485;-38
2022/01/08 08:08:15;;;;;;;13.35;4.97;;;1.20;99.90;;;;;;5019923;28;20072;-38
2022/01/08 08:10:43;;;;;;;16.42;5.22;;;1.20;99.90;;;;;;5040422;28;20045;-37
2022/01/08 08:13:10;;;;;;;16.02;5.20;;;1.30;99.90;;;;;;5035422;28;20044;-37
2022/01/08 08:15:37;;;;;;;14.05;4.82;;;1.30;99.90;;;;;;5037840;28;20487;-37
2022/01/08 08:18:04;;;;;;;22.75;5.97;;;1.30;99.90;;;;;;5038344;28;20050;-38
2022/01/08 08:20:31;;;;;;;16.50;4.85;;;1.30;99.90;;;;;;5037561;28;20445;-38
2022/01/08 08:22:59;;;;;;;12.15;4.80;;;1.30;99.90;;;;;;5039794;28;20045;-38
2022/01/08 08:25:26;;;;;;;23.88;5.28;;;1.40;99.90;;;;;;5035520;28;20057;-37
2022/01/08 08:27:53;;;;;;;16.80;5.72;;;1.30;99.90;;;;;;5045254;28;20049;-37
2022/01/08 08:30:21;;;;;;;17.80;5.72;;;1.40;99.90;;;;;;5038350;28;20416;-38
2022/01/08 08:32:47;;;;;;;16.85;5.05;;;1.40;99.90;;;;;;5043367;28;20089;-37
2022/01/08 08:35:14;;;;;;;18.98;5.70;;;1.40;99.90;;;;;;5047468;28;20041;-37
2022/01/08 08:37:41;;;;;;;22.50;5.20;;;1.50;99.90;;;;;;5042330;28;20050;-38
2022/01/08 08:40:11;;;;;;;18.70;4.82;;;1.50;99.90;;;;;;5037618;28;20053;-39
2022/01/08 08:42:38;;;;;;;22.10;5.97;;;1.50;99.90;;;;;;5047500;28;20068;-38
2022/01/08 08:45:06;;;;;;;15.05;4.78;;;1.50;99.90;;;;;;5044128;28;20137;-39
2022/01/08 08:47:33;;;;;;;12.73;5.07;;;1.50;99.90;;;;;;5024449;28;20210;-38
2022/01/08 08:50:00;;;;;;;15.65;5.00;;;1.50;99.90;;;;;;5037556;28;20580;-39
2022/01/08 08:52:27;;;;;;;18.50;5.40;;;1.60;99.90;;;;;;5026610;28;20132;-39
2022/01/08 08:54:54;;;;;;;13.30;5.15;;;1.60;99.90;;;;;;5022999;28;20065;-38
2022/01/08 08:57:22;;;;;;;16.23;5.00;;;1.60;99.90;;;;;;5034999;28;20049;-38
2022/01/08 08:59:49;;;;;;;19.65;5.15;;;1.70;99.90;;;;;;5043307;28;20128;-39
2022/01/08 09:02:16;;;;;;;19.00;6.07;;;1.70;99.90;;;;;;5039567;28;20052;-39
2022/01/08 09:04:43;;;;;;;16.27;6.15;;;1.70;99.90;;;;;;5038793;28;20085;-39
2022/01/08 09:07:10;;;;;;;16.95;6.35;;;1.70;99.90;;;;;;5039680;28;20540;-39
2022/01/08 09:09:38;;;;;;;18.88;6.15;;;1.80;99.90;;;;;;5041216;28;20072;-39
2022/01/08 09:12:05;;;;;;;19.77;6.25;;;1.90;99.90;;;;;;5020840;28;20123;-39
2022/01/08 09:14:34;;;;;;;20.80;7.03;;;1.90;99.90;;;;;;5048133;28;20128;-39
2022/01/08 09:17:04;;;;;;;17.38;6.05;;;1.90;99.90;;;;;;5045843;28;20677;-39
2022/01/08 09:19:31;;;;;;;18.65;6.05;;;2.00;99.90;;;;;;5024130;28;20041;-39
2022/01/08 09:21:58;;;;;;;16.73;6.20;;;2.00;99.90;;;;;;5034464;28;20091;-39
2022/01/08 09:24:25;;;;;;;20.83;5.53;;;2.00;99.90;;;;;;5023883;28;20041;-39
2022/01/08 09:26:52;;;;;;;16.52;5.80;;;2.00;99.90;;;;;;5028059;28;20045;-39
2022/01/08 09:29:19;;;;;;;19.98;5.60;;;2.00;99.90;;;;;;5042805;28;20056;-38
2022/01/08 09:31:47;;;;;;;16.98;6.10;;;2.00;99.90;;;;;;5023201;28;20137;-38
2022/01/08 09:34:14;;;;;;;15.80;6.40;;;2.00;99.90;;;;;;5033631;28;20045;-39
2022/01/08 09:36:43;;;;;;;19.15;6.15;;;2.00;99.90;;;;;;5044586;28;20071;-39
2022/01/08 09:39:10;;;;;;;21.33;6.60;;;2.00;99.90;;;;;;5024103;28;20412;-38
2022/01/08 09:41:37;;;;;;;16.77;6.70;;;2.00;99.90;;;;;;5019741;28;20466;-38
2022/01/08 09:44:05;;;;;;;17.60;5.97;;;2.00;99.90;;;;;;5016728;28;20077;-38
2022/01/08 09:46:32;;;;;;;16.42;6.97;;;2.00;99.90;;;;;;5043035;28;20130;-38
2022/01/08 09:49:00;;;;;;;16.75;7.00;;;2.00;99.90;;;;;;5016596;28;20176;-38
2022/01/08 09:51:27;;;;;;;23.13;7.18;;;2.10;99.90;;;;;;5029072;28;20045;-38
2022/01/08 09:53:55;;;;;;;21.27;7.85;;;2.20;99.90;;;;;;5024162;28;20045;-38
2022/01/08 09:56:25;;;;;;;22.10;7.82;;;2.20;99.90;;;;;;5054092;28;20053;-38
2022/01/08 09:58:52;;;;;;;19.85;7.88;;;2.30;99.90;;;;;;5038143;28;20045;-38
2022/01/08 10:01:23;;;;;;;20.20;7.47;;;2.30;99.90;;;;;;5034153;28;20053;-38
2022/01/08 10:03:50;;;;;;;24.92;9.57;;;2.40;99.90;;;;;;5025328;28;20085;-38
2022/01/08 10:06:23;;;;;;;21.67;7.93;;;2.40;99.90;;;;;;5039363;28;20051;-38
2022/01/08 10:08:51;;;;;;;25.42;9.65;;;2.40;99.90;;;;;;5043732;28;20114;-38
2022/01/08 10:11:19;;;;;;;19.05;8.55;;;2.50;99.90;;;;;;5033584;28;20540;-38
2022/01/08 10:13:48;;;;;;;18.90;9.13;;;2.50;99.90;;;;;;5028219;28;20119;-39
2022/01/08 10:19:03;;;;;;;21.88;10.50;;;2.50;99.90;;;;;;5037326;28;20053;-39
2022/01/08 10:21:34;;;;;;;23.98;9.55;;;2.50;99.90;;;;;;5056820;28;20120;-39
2022/01/08 10:24:03;;;;;;;25.77;9.15;;;2.50;99.90;;;;;;5032064;28;20136;-38
2022/01/08 10:26:33;;;;;;;23.90;9.77;;;2.50;99.90;;;;;;5037591;28;20393;-38
2022/01/08 10:29:01;;;;;;;27.20;10.30;;;2.50;99.90;;;;;;5037803;28;20131;-38
2022/01/08 10:31:28;;;;;;;23.02;10.50;;;2.60;99.90;;;;;;5038389;28;20049;-37
2022/01/08 10:34:05;;;;;;;18.17;9.63;;;2.60;99.90;;;;;;5040004;28;20507;-37
2022/01/08 10:36:35;;;;;;;19.35;9.57;;;2.60;99.90;;;;;;5043847;28;20084;-37
2022/01/08 10:39:03;;;;;;;20.15;9.30;;;2.60;99.90;;;;;;5030307;28;20060;-37
2022/01/08 10:41:30;;;;;;;30.52;11.10;;;2.70;99.90;;;;;;5042960;28;20149;-37
2022/01/08 10:44:12;;;;;;;23.27;10.43;;;2.70;99.90;;;;;;5050340;28;20057;-37
2022/01/08 10:46:39;;;;;;;19.23;10.57;;;2.70;99.90;;;;;;5042974;28;20085;-37
2022/01/08 10:49:07;;;;;;;24.25;11.02;;;2.70;99.90;;;;;;5029652;28;20136;-38
2022/01/08 10:51:37;;;;;;;22.08;11.02;;;2.70;99.90;;;;;;5048546;28;20134;-38
2022/01/08 10:54:09;;;;;;;24.00;10.43;;;2.80;99.90;;;;;;5047734;28;20056;-38
2022/01/08 10:56:37;;;;;;;26.38;10.93;;;2.80;99.90;;;;;;5031663;28;20041;-38
2022/01/08 10:59:12;;;;;;;23.17;9.48;;;2.80;99.90;;;;;;5045240;28;20080;-39
2022/01/08 11:01:43;;;;;;;32.10;10.65;;;2.80;99.90;;;;;;5030305;28;20060;-39
2022/01/08 11:04:12;;;;;;;19.90;8.60;;;2.80;99.90;;;;;;5043385;28;20053;-39
2022/01/08 11:06:52;;;;;;;28.38;10.10;;;2.90;99.90;;;;;;5043647;28;20052;-39
2022/01/08 11:09:19;;;;;;;21.23;10.70;;;3.00;99.90;;;;;;5038304;28;20836;-39
2022/01/08 11:11:49;;;;;;;27.08;10.30;;;3.00;99.90;;;;;;5038182;28;20137;-39
2022/01/08 11:14:44;;;;;;;27.95;10.95;;;3.00;99.90;;;;;;5042111;28;20052;-39
2022/01/08 11:17:05;;;;;;;24.23;10.70;;;3.00;99.90;;;;;;5043343;28;20041;-39
2022/01/08 11:19:32;;;;;;;19.60;10.13;;;3.10;99.90;;;;;;5035322;28;20072;-40
2022/01/08 11:22:01;;;;;;;23.60;10.00;;;3.10;99.90;;;;;;5037035;28;20045;-40
2022/01/08 11:24:28;;;;;;;23.95;10.05;;;3.10;99.90;;;;;;5038942;28;20049;-39
2022/01/08 11:26:55;;;;;;;22.80;10.30;;;3.10;99.90;;;;;;5036875;28;20045;-40
2022/01/08 11:29:23;;;;;;;22.35;10.32;;;3.20;99.90;;;;;;5027828;28;20503;-39
2022/01/08 11:31:52;;;;;;;27.00;10.52;;;3.20;99.90;;;;;;5031675;28;20415;-40
2022/01/08 11:34:21;;;;;;;22.92;11.15;;;3.10;99.90;;;;;;5048158;28;20522;-41
2022/01/08 11:36:49;;;;;;;21.42;10.00;;;3.20;99.90;;;;;;5031658;28;20052;-41
2022/01/08 11:39:18;;;;;;;28.88;10.85;;;3.20;99.90;;;;;;5025944;28;20065;-41
2022/01/08 11:41:45;;;;;;;22.48;12.25;;;3.20;99.90;;;;;;5044672;28;20408;-42
2022/01/08 11:44:12;;;;;;;21.63;11.32;;;3.30;99.90;;;;;;5042215;28;20488;-41
2022/01/08 11:46:40;;;;;;;29.10;11.00;;;3.30;99.90;;;;;;5030038;28;20120;-41
2022/01/08 11:49:07;;;;;;;24.67;12.25;;;3.40;99.90;;;;;;5019010;28;20053;-41
2022/01/08 11:51:35;;;;;;;23.63;12.80;;;3.40;99.90;;;;;;5039208;28;21863;-41
2022/01/08 11:54:03;;;;;;;21.73;11.50;;;3.50;99.90;;;;;;5027401;28;20659;-39
2022/01/08 11:56:32;;;;;;;24.40;12.50;;;3.50;99.90;;;;;;5021906;28;20053;-39
2022/01/08 11:59:04;;;;;;;21.45;12.73;;;3.50;99.90;;;;;;5000992;28;20061;-40
2022/01/08 12:01:31;;;;;;;24.00;13.50;;;3.60;99.90;;;;;;5043454;28;20588;-39
2022/01/08 12:03:58;;;;;;;22.63;12.43;;;3.60;99.90;;;;;;5044094;28;20152;-39
2022/01/08 12:06:39;;;;;;;30.92;14.13;;;3.60;99.90;;;;;;5027754;28;20060;-40
2022/01/08 12:09:21;;;;;;;29.33;16.08;;;3.60;99.90;;;;;;5033848;28;20045;-39
2022/01/08 12:11:58;;;;;;;31.60;15.68;;;3.60;99.90;;;;;;5025562;28;20049;-41
2022/01/08 12:14:29;;;;;;;30.08;16.17;;;3.60;99.90;;;;;;5049487;28;20053;-40
2022/01/08 12:16:56;;;;;;;27.88;15.45;;;3.60;99.90;;;;;;5048706;28;20045;-40
2022/01/08 12:19:34;;;;;;;28.73;17.02;;;3.60;99.90;;;;;;5050529;28;20131;-39
2022/01/08 12:22:02;;;;;;;28.75;17.05;;;3.70;99.90;;;;;;5050104;28;20485;-39
2022/01/08 12:24:35;;;;;;;31.05;17.00;;;3.70;99.90;;;;;;5035782;28;21724;-39
2022/01/08 12:27:19;;;;;;;35.15;18.33;;;3.70;99.90;;;;;;5030842;28;20381;-40
2022/01/08 12:29:46;;;;;;;29.20;18.48;;;3.60;99.90;;;;;;5045021;28;20043;-39
2022/01/08 12:32:31;;;;;;;33.50;19.42;;;3.60;99.90;;;;;;5024404;28;20588;-40
2022/01/08 12:35:22;;;;;;;27.80;16.25;;;3.60;99.90;;;;;;5030964;28;20448;-39
2022/01/08 12:37:51;;;;;;;37.30;21.63;;;3.60;99.90;;;;;;5027186;28;20095;-40
2022/01/08 12:40:33;;;;;;;31.73;20.88;;;3.60;99.90;;;;;;5049188;28;20601;-39
2022/01/08 12:43:19;;;;;;;23.13;16.83;;;3.60;99.90;;;;;;5044522;28;20068;-40
2022/01/08 12:45:48;;;;;;;40.90;19.40;;;3.60;99.90;;;;;;5043790;28;20077;-40
2022/01/08 12:48:15;;;;;;;33.00;19.38;;;3.60;99.90;;;;;;5024612;28;20052;-40
2022/01/08 12:50:56;;;;;;;32.42;21.42;;;3.60;99.90;;;;;;5047351;28;20507;-40
2022/01/08 12:53:27;;;;;;;37.40;21.80;;;3.60;99.90;;;;;;5031060;28;20061;-40
2022/01/08 12:56:15;;;;;;;32.35;18.98;;;3.60;99.90;;;;;;5044278;28;20084;-40
2022/01/08 12:58:52;;;;;;;34.97;21.02;;;3.60;99.90;;;;;;5032898;28;20128;-40
2022/01/08 13:01:21;;;;;;;28.23;18.45;;;3.60;99.90;;;;;;5046181;28;20061;-40
2022/01/08 13:03:49;;;;;;;27.27;19.52;;;3.60;99.90;;;;;;5030740;28;20056;-39
2022/01/08 13:06:33;;;;;;;36.40;20.80;;;3.60;99.90;;;;;;5048684;28;20052;-40
2022/01/08 13:09:01;;;;;;;32.10;20.70;;;3.60;99.90;;;;;;5048557;28;20132;-40